Rain From: 21-07-2018 02:00 Until: 16:00 warning for: Rain Level: Yellow info button
suomi:
Sadevaroitus: Aamuyöstä alkaen voi sataa rankasti, yli 20 mm tunnissa.

svenska:
Nederbördsvarning: Från och med efternatten kan det förekomma synnerligen riklig nederbörd, mer än 20 mm i timmen.

english:
Heavy rain warning: From the early morning on heavy rain of more than 20 mm per hour can be expected. 

Forest fire From: 20-07-2018 23:00 Until: 21-07-2018 11:00 warning for: Forest fire Level: Yellow info button
suomi:
Metsäpalovaroitus on voimassa.

svenska:
Varning för skogsbrand gäller.

english:
A forest fire warning is in force. 


Thunder radar more information blitzortung!


Löydät sääaseman tiedot myös:

European Weather Network

Finland Weather Exchange

Weather Underground

AWEKAS



Weather Underground säähistoriasivu

Päivittäin yhteenveto Tammikuu 18, 2017 Yksiköt:  Englantilaiset    Metriset   Molemmat
« Edellinen Päivä
Seuraava Päivä »
Päivittäin Viikoittain Kuukausittain Vuosittain Mukautettu
  Korkea: Matala: Keskiarvo:
Lämpötila: TemperatureC °F 0.3 °F 0.8 °F
Kastepiste: DewpointC °F -0.4 °F 0.3 °F
Kosteus: Humidity % 94 % 95 %
Tuulen nopeus: WindSpeedKMH mph 1.6 mph 8 mph
Tuulenpuuska: WindSpeedGustKMH mph - -
Tuuli:- - SSW
Ilmanpaine: PressurehPa in 1011.7 in -
Sade: 0.3 in    
Historical Graphs
 
 
Taulukkotiedot Tammikuu 18, 2017
Aika Lämpötila Kastepiste Ilmanpaine Tuuli Tuulen nopeus Tuulenpuuska Kosteus Sademäärä (tunneittain)
TemperatureC °F DewpointC °F PressurehPa in Calm     Humidity % HourlyPrecipMM in
00:00 0.3 °F -0.4 °F 1021.6 in SSW 8.0 mph 27.4 mph 95 % 0.0 in
00:15 0.4 °F -0.3 °F 1021.6 in SSW 8.0 mph 22.5 mph 95 % 0.0 in
00:30 0.4 °F -0.3 °F 1021.6 in SSW 6.4 mph 16.1 mph 95 % 0.0 in
00:45 0.5 °F -0.2 °F 1021.6 in SSW 6.4 mph 16.1 mph 95 % 0.0 in
01:00 0.5 °F -0.2 °F 1021.6 in SSW 6.4 mph 17.7 mph 95 % 0.0 in
01:15 0.6 °F -0.2 °F 1021.6 in SSW 8.0 mph 17.7 mph 95 % 0.0 in
01:30 0.6 °F -0.2 °F 1021.9 in SSW 6.4 mph 16.1 mph 95 % 0.0 in
01:45 0.6 °F -0.1 °F 1021.9 in SSW 6.4 mph 14.5 mph 95 % 0.0 in
02:00 0.6 °F -0.1 °F 1021.9 in SSW 8.0 mph 17.7 mph 95 % 0.0 in
02:15 0.7 °F 0.0 °F 1021.9 in SSW 8.0 mph 19.3 mph 95 % 0.0 in
02:30 0.7 °F 0.0 °F 1022.2 in SSW 8.0 mph 19.3 mph 95 % 0.0 in
02:45 0.7 °F 0.1 °F 1022.2 in SSW 8.0 mph 19.3 mph 96 % 0.0 in
03:00 0.7 °F 0.1 °F 1022.2 in SSW 4.8 mph 11.3 mph 96 % 0.0 in
03:15 0.7 °F 0.1 °F 1022.2 in SW 4.8 mph 12.9 mph 96 % 0.0 in
03:30 0.7 °F 0.2 °F 1021.9 in SSW 6.4 mph 12.9 mph 96 % 0.0 in
03:45 0.8 °F 0.2 °F 1021.9 in SSW 4.8 mph 14.5 mph 96 % 0.0 in
04:00 0.8 °F 0.2 °F 1021.9 in SSW 4.8 mph 9.7 mph 96 % 0.0 in
04:15 0.8 °F 0.2 °F 1022.2 in SSW 4.8 mph 12.9 mph 96 % 0.0 in
04:30 0.8 °F 0.2 °F 1021.9 in SSW 4.8 mph 11.3 mph 96 % 0.0 in
04:45 0.7 °F 0.2 °F 1021.9 in SSW 3.2 mph 9.7 mph 96 % 0.0 in
05:00 0.7 °F 0.2 °F 1021.9 in SSW 1.6 mph 8.0 mph 96 % 0.0 in
05:15 0.7 °F 0.3 °F 1022.2 in SSW 3.2 mph 14.5 mph 97 % 0.0 in
05:30 0.7 °F 0.2 °F 1021.9 in SSW 4.8 mph 11.3 mph 97 % 0.0 in
05:45 0.6 °F 0.2 °F 1021.9 in SSW 4.8 mph 12.9 mph 97 % 0.0 in
06:00 0.5 °F 0.1 °F 1021.6 in SSW 4.8 mph 16.1 mph 97 % 0.0 in
06:15 0.4 °F 0.0 °F 1021.6 in SW 3.2 mph 11.3 mph 97 % 0.0 in
06:30 0.4 °F 0.0 °F 1021.9 in SSW 4.8 mph 9.7 mph 97 % 0.0 in
06:45 0.4 °F 0.0 °F 1021.6 in SSW 4.8 mph 12.9 mph 97 % 0.0 in
07:00 0.4 °F 0.0 °F 1021.6 in SSW 3.2 mph 16.1 mph 97 % 0.0 in
07:15 0.4 °F 0.0 °F 1022.2 in SSW 1.6 mph 6.4 mph 97 % 0.0 in
07:30 0.4 °F 0.0 °F 1021.6 in SSW 4.8 mph 16.1 mph 97 % 0.0 in
07:45 0.4 °F 0.0 °F 1022.2 in SW 1.6 mph 8.0 mph 97 % 0.0 in
08:00 0.4 °F 0.0 °F 1021.6 in SSW 3.2 mph 11.3 mph 97 % 0.0 in
08:15 0.4 °F 0.0 °F 1021.9 in SW 3.2 mph 8.0 mph 97 % 0.0 in
08:30 0.4 °F 0.0 °F 1021.9 in SSW 3.2 mph 8.0 mph 97 % 0.0 in
08:45 0.4 °F 0.0 °F 1021.9 in SSW 4.8 mph 8.0 mph 97 % 0.0 in
09:00 0.5 °F 0.1 °F 1021.6 in SSW 3.2 mph 8.0 mph 97 % 0.0 in
09:15 0.5 °F 0.1 °F 1021.6 in South 1.6 mph 8.0 mph 97 % 0.0 in
09:30 0.5 °F 0.1 °F 1021.2 in SSW 3.2 mph 11.3 mph 97 % 0.0 in
09:45 0.6 °F 0.1 °F 1021.6 in SSW 3.2 mph 9.7 mph 97 % 0.0 in
10:00 0.5 °F 0.1 °F 1021.6 in SSW 4.8 mph 16.1 mph 97 % 0.0 in
10:15 0.5 °F 0.1 °F 1021.6 in SSW 6.4 mph 16.1 mph 97 % 0.0 in
10:30 0.6 °F 0.1 °F 1021.6 in SSW 6.4 mph 12.9 mph 97 % 0.0 in
10:45 0.6 °F 0.2 °F 1021.6 in SSW 4.8 mph 14.5 mph 97 % 0.0 in
11:00 0.6 °F 0.1 °F 1021.2 in SSW 8.0 mph 16.1 mph 97 % 0.0 in
11:15 0.6 °F 0.1 °F 1020.9 in SSW 6.4 mph 14.5 mph 97 % 0.0 in
11:30 0.6 °F 0.1 °F 1020.5 in SSW 8.0 mph 16.1 mph 97 % 0.0 in
11:45 0.6 °F 0.2 °F 1020.5 in SSW 6.4 mph 16.1 mph 97 % 0.0 in
12:00 0.7 °F 0.4 °F 1020.5 in SSW 6.4 mph 16.1 mph 98 % 0.0 in
12:15 0.7 °F 0.4 °F 1020.5 in SSW 8.0 mph 17.7 mph 98 % 0.0 in
12:30 0.8 °F 0.5 °F 1020.2 in SSW 6.4 mph 16.1 mph 98 % 0.0 in
12:45 0.8 °F 0.6 °F 1019.9 in SSW 8.0 mph 14.5 mph 98 % 0.0 in
13:00 0.9 °F 0.5 °F 1019.5 in SSW 6.4 mph 16.1 mph 97 % 0.0 in
13:15 1.0 °F 0.7 °F 1019.5 in SSW 6.4 mph 16.1 mph 98 % 0.0 in
13:30 1.1 °F 0.7 °F 1018.8 in SSW 6.4 mph 14.5 mph 97 % 0.0 in
13:45 1.2 °F 0.7 °F 1018.5 in SSW 8.0 mph 16.1 mph 97 % 0.0 in
14:00 1.2 °F 0.8 °F 1018.2 in SSW 9.7 mph 17.7 mph 97 % 0.0 in
14:15 1.3 °F 0.9 °F 1018.2 in SSW 6.4 mph 12.9 mph 97 % 0.0 in
14:30 1.4 °F 0.8 °F 1017.8 in SSW 9.7 mph 20.9 mph 96 % 0.0 in
14:45 1.4 °F 0.9 °F 1017.8 in SSW 9.7 mph 25.7 mph 96 % 0.0 in
15:00 1.4 °F 0.7 °F 1017.5 in SSW 8.0 mph 17.7 mph 95 % 0.0 in
15:15 1.5 °F 0.8 °F 1017.2 in SSW 9.7 mph 20.9 mph 95 % 0.0 in
15:30 1.5 °F 0.8 °F 1016.8 in SSW 8.0 mph 20.9 mph 95 % 0.0 in
15:45 1.5 °F 0.8 °F 1016.8 in SSW 9.7 mph 20.9 mph 95 % 0.0 in
16:00 1.4 °F 0.7 °F 1016.5 in SSW 11.3 mph 19.3 mph 95 % 0.0 in
16:15 1.4 °F 0.7 °F 1016.5 in SSW 12.9 mph 22.5 mph 95 % 0.0 in
16:30 1.4 °F 0.5 °F 1016.1 in SSW 9.7 mph 20.9 mph 94 % 0.0 in
16:45 1.3 °F 0.6 °F 1015.8 in SSW 9.7 mph 19.3 mph 95 % 0.0 in
17:00 1.3 °F 0.6 °F 1015.5 in SSW 11.3 mph 30.6 mph 95 % 0.0 in
17:15 1.3 °F 0.6 °F 1015.8 in SSW 12.9 mph 30.6 mph 95 % 0.0 in
17:45 1.0 °F 0.3 °F 1015.5 in SSW 9.7 mph 27.4 mph 95 % 0.0 in
18:00 0.9 °F 0.2 °F 1015.5 in SSW 9.7 mph 27.4 mph 95 % 0.0 in
18:15 0.8 °F 0.1 °F 1015.1 in SSW 12.9 mph 32.2 mph 95 % 0.0 in
18:30 0.6 °F 0.0 °F 1014.8 in SSW 14.5 mph 30.6 mph 96 % 0.0 in
18:45 0.5 °F -0.1 °F 1014.4 in SSW 12.9 mph 41.8 mph 96 % 0.0 in
19:00 0.4 °F -0.1 °F 1014.8 in SSW 12.9 mph 30.6 mph 96 % 0.0 in
19:15 0.4 °F -0.1 °F 1014.4 in SSW 12.9 mph 30.6 mph 96 % 0.0 in
19:30 0.5 °F -0.1 °F 1014.4 in SSW 14.5 mph 38.6 mph 96 % 0.0 in
19:45 0.6 °F 0.2 °F 1014.1 in SSW 14.5 mph 30.6 mph 97 % 0.0 in
20:00 0.7 °F 0.2 °F 1013.8 in SSW 14.5 mph 27.4 mph 97 % 0.0 in
20:15 0.7 °F 0.2 °F 1013.4 in SSW 12.9 mph 27.4 mph 97 % 0.0 in
20:30 0.7 °F 0.3 °F 1013.4 in SSW 11.3 mph 27.4 mph 97 % 0.0 in
20:45 0.8 °F 0.4 °F 1013.4 in SSW 14.5 mph 30.6 mph 97 % 0.3 in
21:00 0.8 °F 0.4 °F 1013.1 in SSW 14.5 mph 37.0 mph 97 % 0.3 in
21:15 0.8 °F 0.4 °F 1012.8 in SSW 11.3 mph 25.7 mph 97 % 0.3 in
21:30 0.8 °F 0.4 °F 1013.1 in SSW 11.3 mph 22.5 mph 97 % 0.3 in
21:45 0.9 °F 0.5 °F 1013.1 in SSW 14.5 mph 27.4 mph 97 % 0.0 in
22:00 0.9 °F 0.5 °F 1012.8 in SSW 12.9 mph 30.6 mph 97 % 0.0 in
22:15 1.0 °F 0.6 °F 1012.8 in SSW 11.3 mph 25.7 mph 97 % 0.0 in
22:30 1.1 °F 0.6 °F 1012.1 in SSW 12.9 mph 37.0 mph 97 % 0.0 in
22:45 1.1 °F 0.5 °F 1012.1 in SSW 12.9 mph 27.4 mph 96 % 0.0 in
23:00 1.1 °F 0.5 °F 1012.1 in SSW 14.5 mph 37.0 mph 96 % 0.0 in
23:15 1.1 °F 0.5 °F 1011.7 in SSW 12.9 mph 32.2 mph 96 % 0.0 in
23:30 1.2 °F 0.6 °F 1012.1 in SSW 14.5 mph 29.0 mph 96 % 0.0 in
23:45 1.2 °F 0.5 °F 1011.7 in SSW 12.9 mph 25.7 mph 95 % 0.0 in
Esan sääasema
Terveisin Weather Underground - 2.75 mb

Alkuperäinen skripti  Jim McMurry - jmcmurry@mwt.net Sovitettu myös templatelle  Wim van der Kuil - Leuven-Template.eu

Laitteet joita käytämme:

Sääasema
Davis VP2

Sääasemaohjelma
Cumulus

Sääaseman tietokone
Asus EeePC

Palveluntarjoaja
Suncomet

Davis VP2

Cumulus

Asus EeePC

Suncomet